Marshfield, WI

2:32 AM CST on December 22, 2014 (GMT -0600)
Marshfield Municipal | Change Station
CLOSE
Current Station
Airport
Location: Marshfield,
Elevation: 1276 ft
Nearby Weather Stations

Elev 1276 ft 44.64 °N, 90.19 °W | Updated 38 minutes ago

Light Snow
Light Snow Mist
34 °F
Feels Like 26 °F
N
10
Wind Variable Wind from South

Today
High -- | Low -- °F
--% Chance of Precip.
Yesterday
High -- | Low -- °F
Precip. -- in
7:35 AM 4:23 PM
New Moon, 0% visible
Pressure 29.89 in
Visibility 2.5 miles
Clouds Overcast 600 ft
Windchill 26 °F
Dew Point 32 °F
Humidity 92%
Rainfall 0.00 in
Snow Depth Not available.
UV 0 out of 12
Pollen .10 out of 12
Air Quality Not available.
Flu Activity Not available.
METAR KMFI 220754Z AUTO 17009KT 2 1/2SM -SN BR OVC006 01/00 A2984 RMK AO2 SNB02 SLP120 P0000 T00110000

More Conditions Fewer Conditions

Pressure 29.89 in
Visibility 2.5 miles
Clouds Overcast 600 ft
Windchill 26 °F
Dew Point 32 °F
Humidity 92%
Rainfall 0.00 in
Snow Depth Not available.
UV 0 out of 12
Pollen .10 out of 12
Air Quality Not available.
Flu Activity Not available.
METAR KMFI 220754Z AUTO 17009KT 2 1/2SM -SN BR OVC006 01/00 A2984 RMK AO2 SNB02 SLP120 P0000 T00110000

More Conditions Fewer Conditions

10-Day Weather Forecast

Almanac

Astronomy

Dec. 22, 2014 Rise Set
Actual Time
Civil Twilight
Nautical Twilight
Astronomical Twilight
Moon
Length of Visible Light
Length of Day
Tomorrow will be .
, % of the Moon is Illuminated

Today's Extremes

State Highs State Lows

Community

WunderPhotos

Upload Photos

1,779,580 photos uploaded!

WunderBlogs® & News

Nearby

Air Quality

  Air Quality AQ Index Pollutant
Not available.

Snow Depth

Station Depth Elevation

Earthquake Activity

City Distance Mag. Time & Date
Minimum magnitude displayed is 2.5.

Coastal Water Temperatures

Place Temperature

Nearby Weather Stations